sensor_id;sensor_type;location;lat;lon;timestamp;temperature;humidity
29765;DHT22;16667;-33.884;151.182;2022-08-19T00:00:12;15.10;99.90
29765;DHT22;16667;-33.884;151.182;2022-08-19T00:02:43;15.10;99.90
29765;DHT22;16667;-33.884;151.182;2022-08-19T00:05:14;15.00;99.90
29765;DHT22;16667;-33.884;151.182;2022-08-19T00:07:45;14.90;99.90
29765;DHT22;16667;-33.884;151.182;2022-08-19T00:10:18;14.90;99.90
29765;DHT22;16667;-33.884;151.182;2022-08-19T00:12:49;14.90;99.90
29765;DHT22;16667;-33.884;151.182;2022-08-19T00:15:21;15.00;99.90
29765;DHT22;16667;-33.884;151.182;2022-08-19T00:17:52;15.00;99.90
29765;DHT22;16667;-33.884;151.182;2022-08-19T00:20:23;15.10;99.90
29765;DHT22;16667;-33.884;151.182;2022-08-19T00:22:54;15.10;99.90
29765;DHT22;16667;-33.884;151.182;2022-08-19T00:25:27;15.20;99.90
29765;DHT22;16667;-33.884;151.182;2022-08-19T00:27:57;15.30;99.90
29765;DHT22;16667;-33.884;151.182;2022-08-19T00:30:28;15.50;99.90
29765;DHT22;16667;-33.884;151.182;2022-08-19T00:32:59;15.60;99.90
29765;DHT22;16667;-33.884;151.182;2022-08-19T00:35:30;15.70;99.90
29765;DHT22;16667;-33.884;151.182;2022-08-19T00:38:01;15.90;99.90
29765;DHT22;16667;-33.884;151.182;2022-08-19T00:40:35;16.00;99.90
29765;DHT22;16667;-33.884;151.182;2022-08-19T00:43:09;16.20;99.90
29765;DHT22;16667;-33.884;151.182;2022-08-19T00:45:41;16.30;99.90
29765;DHT22;16667;-33.884;151.182;2022-08-19T00:48:12;16.40;99.90
29765;DHT22;16667;-33.884;151.182;2022-08-19T00:50:44;16.50;99.90
29765;DHT22;16667;-33.884;151.182;2022-08-19T00:53:17;16.50;99.90
29765;DHT22;16667;-33.884;151.182;2022-08-19T00:55:52;16.60;99.90
29765;DHT22;16667;-33.884;151.182;2022-08-19T00:58:26;16.60;99.90
29765;DHT22;16667;-33.884;151.182;2022-08-19T01:00:58;16.70;99.90
29765;DHT22;16667;-33.884;151.182;2022-08-19T01:03:29;16.60;99.90
29765;DHT22;16667;-33.884;151.182;2022-08-19T01:06:01;16.70;99.90
29765;DHT22;16667;-33.884;151.182;2022-08-19T01:08:32;16.70;99.90
29765;DHT22;16667;-33.884;151.182;2022-08-19T01:11:06;16.90;99.90
29765;DHT22;16667;-33.884;151.182;2022-08-19T01:13:37;17.00;99.90
29765;DHT22;16667;-33.884;151.182;2022-08-19T01:16:10;17.10;99.90
29765;DHT22;16667;-33.884;151.182;2022-08-19T01:18:43;17.10;99.90
29765;DHT22;16667;-33.884;151.182;2022-08-19T01:21:20;17.40;99.90
29765;DHT22;16667;-33.884;151.182;2022-08-19T01:23:54;17.60;99.90
29765;DHT22;16667;-33.884;151.182;2022-08-19T01:26:27;17.70;99.90
29765;DHT22;16667;-33.884;151.182;2022-08-19T01:29:00;17.80;99.90
29765;DHT22;16667;-33.884;151.182;2022-08-19T01:31:31;17.90;99.90
29765;DHT22;16667;-33.884;151.182;2022-08-19T01:34:03;17.90;99.90
29765;DHT22;16667;-33.884;151.182;2022-08-19T01:36:39;17.90;99.90
29765;DHT22;16667;-33.884;151.182;2022-08-19T01:39:17;18.00;99.90
29765;DHT22;16667;-33.884;151.182;2022-08-19T01:41:48;18.10;99.90
29765;DHT22;16667;-33.884;151.182;2022-08-19T01:44:19;18.00;99.90
29765;DHT22;16667;-33.884;151.182;2022-08-19T01:46:52;17.90;99.90
29765;DHT22;16667;-33.884;151.182;2022-08-19T01:49:24;17.80;99.90
29765;DHT22;16667;-33.884;151.182;2022-08-19T01:51:58;17.80;99.90
29765;DHT22;16667;-33.884;151.182;2022-08-19T01:54:31;17.80;99.90
29765;DHT22;16667;-33.884;151.182;2022-08-19T01:57:12;17.80;99.90
29765;DHT22;16667;-33.884;151.182;2022-08-19T01:59:44;17.90;99.90
29765;DHT22;16667;-33.884;151.182;2022-08-19T02:02:15;18.00;99.90
29765;DHT22;16667;-33.884;151.182;2022-08-19T02:04:49;18.00;99.90
29765;DHT22;16667;-33.884;151.182;2022-08-19T02:07:23;18.10;99.90
29765;DHT22;16667;-33.884;151.182;2022-08-19T02:09:56;18.20;99.90
29765;DHT22;16667;-33.884;151.182;2022-08-19T02:12:27;18.00;99.90
29765;DHT22;16667;-33.884;151.182;2022-08-19T02:14:58;18.00;99.90
29765;DHT22;16667;-33.884;151.182;2022-08-19T02:17:30;18.00;99.90
29765;DHT22;16667;-33.884;151.182;2022-08-19T02:20:01;18.10;99.90
29765;DHT22;16667;-33.884;151.182;2022-08-19T02:22:32;18.10;99.90
29765;DHT22;16667;-33.884;151.182;2022-08-19T02:25:05;18.20;99.90
29765;DHT22;16667;-33.884;151.182;2022-08-19T02:27:38;18.20;99.90
29765;DHT22;16667;-33.884;151.182;2022-08-19T02:30:12;18.40;99.90
29765;DHT22;16667;-33.884;151.182;2022-08-19T02:32:43;18.50;99.90
29765;DHT22;16667;-33.884;151.182;2022-08-19T02:35:14;18.60;99.90
29765;DHT22;16667;-33.884;151.182;2022-08-19T02:37:45;18.70;99.90
29765;DHT22;16667;-33.884;151.182;2022-08-19T02:40:36;18.70;99.90
29765;DHT22;16667;-33.884;151.182;2022-08-19T02:43:08;18.90;99.90
29765;DHT22;16667;-33.884;151.182;2022-08-19T02:45:39;19.10;99.90
29765;DHT22;16667;-33.884;151.182;2022-08-19T02:48:11;19.30;99.90
29765;DHT22;16667;-33.884;151.182;2022-08-19T02:50:42;19.60;99.90
29765;DHT22;16667;-33.884;151.182;2022-08-19T02:53:13;19.50;99.90
29765;DHT22;16667;-33.884;151.182;2022-08-19T02:55:46;19.50;99.90
29765;DHT22;16667;-33.884;151.182;2022-08-19T02:58:17;19.40;99.90
29765;DHT22;16667;-33.884;151.182;2022-08-19T03:00:50;19.30;99.90
29765;DHT22;16667;-33.884;151.182;2022-08-19T03:03:21;19.30;99.90
29765;DHT22;16667;-33.884;151.182;2022-08-19T03:06:01;19.30;99.90
29765;DHT22;16667;-33.884;151.182;2022-08-19T03:08:32;19.60;99.90
29765;DHT22;16667;-33.884;151.182;2022-08-19T03:11:13;20.10;99.90
29765;DHT22;16667;-33.884;151.182;2022-08-19T03:13:44;20.10;99.90
29765;DHT22;16667;-33.884;151.182;2022-08-19T03:16:17;20.10;99.90
29765;DHT22;16667;-33.884;151.182;2022-08-19T03:18:47;20.00;99.90
29765;DHT22;16667;-33.884;151.182;2022-08-19T03:21:20;19.90;99.90
29765;DHT22;16667;-33.884;151.182;2022-08-19T03:23:54;19.80;99.90
29765;DHT22;16667;-33.884;151.182;2022-08-19T03:26:28;19.70;99.90
29765;DHT22;16667;-33.884;151.182;2022-08-19T03:29:02;19.60;99.90
29765;DHT22;16667;-33.884;151.182;2022-08-19T03:31:33;19.90;99.90
29765;DHT22;16667;-33.884;151.182;2022-08-19T03:34:07;20.20;99.90
29765;DHT22;16667;-33.884;151.182;2022-08-19T03:36:39;20.20;99.90
29765;DHT22;16667;-33.884;151.182;2022-08-19T03:39:10;20.90;99.90
29765;DHT22;16667;-33.884;151.182;2022-08-19T03:41:49;20.90;99.90
29765;DHT22;16667;-33.884;151.182;2022-08-19T03:44:21;20.70;99.90
29765;DHT22;16667;-33.884;151.182;2022-08-19T03:46:55;20.30;99.90
29765;DHT22;16667;-33.884;151.182;2022-08-19T03:49:27;20.00;99.90
29765;DHT22;16667;-33.884;151.182;2022-08-19T03:52:00;19.70;99.90
29765;DHT22;16667;-33.884;151.182;2022-08-19T03:54:36;19.50;99.90
29765;DHT22;16667;-33.884;151.182;2022-08-19T03:57:09;19.30;99.90
29765;DHT22;16667;-33.884;151.182;2022-08-19T03:59:40;19.10;99.90
29765;DHT22;16667;-33.884;151.182;2022-08-19T04:02:12;19.10;99.90
29765;DHT22;16667;-33.884;151.182;2022-08-19T04:04:44;19.20;99.90
29765;DHT22;16667;-33.884;151.182;2022-08-19T04:07:15;19.30;99.90
29765;DHT22;16667;-33.884;151.182;2022-08-19T04:09:49;19.20;99.90
29765;DHT22;16667;-33.884;151.182;2022-08-19T04:12:26;19.20;99.90
29765;DHT22;16667;-33.884;151.182;2022-08-19T04:14:56;19.20;99.90
29765;DHT22;16667;-33.884;151.182;2022-08-19T04:17:28;19.00;99.90
29765;DHT22;16667;-33.884;151.182;2022-08-19T04:19:58;19.00;99.90
29765;DHT22;16667;-33.884;151.182;2022-08-19T04:22:29;18.80;99.90
29765;DHT22;16667;-33.884;151.182;2022-08-19T04:25:00;18.70;99.90
29765;DHT22;16667;-33.884;151.182;2022-08-19T04:27:33;18.50;99.90
29765;DHT22;16667;-33.884;151.182;2022-08-19T04:30:04;18.60;99.90
29765;DHT22;16667;-33.884;151.182;2022-08-19T04:32:35;19.30;99.90
29765;DHT22;16667;-33.884;151.182;2022-08-19T04:35:06;20.00;99.90
29765;DHT22;16667;-33.884;151.182;2022-08-19T04:37:37;19.90;99.90
29765;DHT22;16667;-33.884;151.182;2022-08-19T04:40:09;19.90;99.90
29765;DHT22;16667;-33.884;151.182;2022-08-19T04:42:58;20.70;99.90
29765;DHT22;16667;-33.884;151.182;2022-08-19T04:45:29;20.50;99.90
29765;DHT22;16667;-33.884;151.182;2022-08-19T04:47:59;20.10;99.90
29765;DHT22;16667;-33.884;151.182;2022-08-19T04:50:30;19.80;99.90
29765;DHT22;16667;-33.884;151.182;2022-08-19T04:53:01;19.40;99.90
29765;DHT22;16667;-33.884;151.182;2022-08-19T04:55:32;19.20;99.90
29765;DHT22;16667;-33.884;151.182;2022-08-19T04:58:05;19.30;99.90
29765;DHT22;16667;-33.884;151.182;2022-08-19T05:00:39;19.40;99.90
29765;DHT22;16667;-33.884;151.182;2022-08-19T05:03:12;19.20;99.90
29765;DHT22;16667;-33.884;151.182;2022-08-19T05:05:47;18.90;99.90
29765;DHT22;16667;-33.884;151.182;2022-08-19T05:08:19;18.80;99.90
29765;DHT22;16667;-33.884;151.182;2022-08-19T05:10:52;18.70;99.90
29765;DHT22;16667;-33.884;151.182;2022-08-19T05:13:26;18.50;99.90
29765;DHT22;16667;-33.884;151.182;2022-08-19T05:15:58;18.20;99.90
29765;DHT22;16667;-33.884;151.182;2022-08-19T05:18:29;17.90;99.90
29765;DHT22;16667;-33.884;151.182;2022-08-19T05:21:17;17.60;99.90
29765;DHT22;16667;-33.884;151.182;2022-08-19T05:24:04;17.50;99.90
29765;DHT22;16667;-33.884;151.182;2022-08-19T05:26:37;17.50;99.90
29765;DHT22;16667;-33.884;151.182;2022-08-19T05:29:10;17.50;99.90
29765;DHT22;16667;-33.884;151.182;2022-08-19T05:31:41;17.60;99.90
29765;DHT22;16667;-33.884;151.182;2022-08-19T05:34:15;17.80;99.90
29765;DHT22;16667;-33.884;151.182;2022-08-19T05:36:46;20.10;99.90
29765;DHT22;16667;-33.884;151.182;2022-08-19T05:39:19;20.00;99.90
29765;DHT22;16667;-33.884;151.182;2022-08-19T05:41:51;19.70;99.90
29765;DHT22;16667;-33.884;151.182;2022-08-19T05:44:25;19.40;99.90
29765;DHT22;16667;-33.884;151.182;2022-08-19T05:46:59;20.10;99.90
29765;DHT22;16667;-33.884;151.182;2022-08-19T05:49:31;22.50;99.90
29765;DHT22;16667;-33.884;151.182;2022-08-19T05:52:05;23.90;99.90
29765;DHT22;16667;-33.884;151.182;2022-08-19T05:54:38;21.90;99.90
29765;DHT22;16667;-33.884;151.182;2022-08-19T05:57:10;21.10;99.90
29765;DHT22;16667;-33.884;151.182;2022-08-19T05:59:46;19.80;99.90
29765;DHT22;16667;-33.884;151.182;2022-08-19T06:02:19;20.40;99.90
29765;DHT22;16667;-33.884;151.182;2022-08-19T06:04:50;20.60;99.90
29765;DHT22;16667;-33.884;151.182;2022-08-19T06:07:21;20.40;99.90
29765;DHT22;16667;-33.884;151.182;2022-08-19T06:09:55;19.60;99.90
29765;DHT22;16667;-33.884;151.182;2022-08-19T06:12:26;18.90;99.90
29765;DHT22;16667;-33.884;151.182;2022-08-19T06:15:00;19.10;99.90
29765;DHT22;16667;-33.884;151.182;2022-08-19T06:17:31;20.30;99.90
29765;DHT22;16667;-33.884;151.182;2022-08-19T06:20:03;21.10;99.90
29765;DHT22;16667;-33.884;151.182;2022-08-19T06:22:38;21.40;99.90
29765;DHT22;16667;-33.884;151.182;2022-08-19T06:25:10;22.00;99.90
29765;DHT22;16667;-33.884;151.182;2022-08-19T06:27:42;22.40;99.90
29765;DHT22;16667;-33.884;151.182;2022-08-19T06:30:16;20.90;99.90
29765;DHT22;16667;-33.884;151.182;2022-08-19T06:32:47;19.70;99.90
29765;DHT22;16667;-33.884;151.182;2022-08-19T06:35:18;19.00;99.90
29765;DHT22;16667;-33.884;151.182;2022-08-19T06:37:49;18.50;99.90
29765;DHT22;16667;-33.884;151.182;2022-08-19T06:40:20;18.20;99.90
29765;DHT22;16667;-33.884;151.182;2022-08-19T06:42:51;17.80;99.90
29765;DHT22;16667;-33.884;151.182;2022-08-19T06:45:24;17.50;99.90
29765;DHT22;16667;-33.884;151.182;2022-08-19T06:47:55;17.30;99.90
29765;DHT22;16667;-33.884;151.182;2022-08-19T06:50:26;17.10;99.90
29765;DHT22;16667;-33.884;151.182;2022-08-19T06:52:59;16.90;99.90
29765;DHT22;16667;-33.884;151.182;2022-08-19T06:55:30;16.70;99.90
29765;DHT22;16667;-33.884;151.182;2022-08-19T06:58:03;16.50;99.90
29765;DHT22;16667;-33.884;151.182;2022-08-19T07:00:39;16.40;99.90
29765;DHT22;16667;-33.884;151.182;2022-08-19T07:03:09;16.20;99.90
29765;DHT22;16667;-33.884;151.182;2022-08-19T07:05:41;16.00;99.90
29765;DHT22;16667;-33.884;151.182;2022-08-19T07:08:12;15.80;99.90
29765;DHT22;16667;-33.884;151.182;2022-08-19T07:10:48;15.70;99.90
29765;DHT22;16667;-33.884;151.182;2022-08-19T07:13:19;15.60;99.90
29765;DHT22;16667;-33.884;151.182;2022-08-19T07:15:52;15.40;99.90
29765;DHT22;16667;-33.884;151.182;2022-08-19T07:18:26;15.30;99.90
29765;DHT22;16667;-33.884;151.182;2022-08-19T07:21:04;15.20;99.90
29765;DHT22;16667;-33.884;151.182;2022-08-19T07:23:35;15.10;99.90
29765;DHT22;16667;-33.884;151.182;2022-08-19T07:26:07;15.00;99.90
29765;DHT22;16667;-33.884;151.182;2022-08-19T07:28:37;14.80;99.90
29765;DHT22;16667;-33.884;151.182;2022-08-19T07:31:11;14.70;99.90
29765;DHT22;16667;-33.884;151.182;2022-08-19T07:33:46;14.70;99.90
29765;DHT22;16667;-33.884;151.182;2022-08-19T07:36:20;14.60;99.90
29765;DHT22;16667;-33.884;151.182;2022-08-19T07:39:02;14.50;99.90
29765;DHT22;16667;-33.884;151.182;2022-08-19T07:41:36;14.50;99.90
29765;DHT22;16667;-33.884;151.182;2022-08-19T07:44:07;14.50;99.90
29765;DHT22;16667;-33.884;151.182;2022-08-19T07:46:48;14.40;99.90
29765;DHT22;16667;-33.884;151.182;2022-08-19T07:49:19;14.40;99.90
29765;DHT22;16667;-33.884;151.182;2022-08-19T07:51:51;14.40;99.90
29765;DHT22;16667;-33.884;151.182;2022-08-19T07:54:26;14.40;99.90
29765;DHT22;16667;-33.884;151.182;2022-08-19T07:56:57;14.40;99.90
29765;DHT22;16667;-33.884;151.182;2022-08-19T07:59:28;14.40;99.90
29765;DHT22;16667;-33.884;151.182;2022-08-19T08:02:01;14.30;99.90
29765;DHT22;16667;-33.884;151.182;2022-08-19T08:04:31;14.30;99.90
29765;DHT22;16667;-33.884;151.182;2022-08-19T08:07:18;14.20;99.90
29765;DHT22;16667;-33.884;151.182;2022-08-19T08:10:06;14.20;99.90
29765;DHT22;16667;-33.884;151.182;2022-08-19T08:12:40;14.10;99.90
29765;DHT22;16667;-33.884;151.182;2022-08-19T08:15:13;14.10;99.90
29765;DHT22;16667;-33.884;151.182;2022-08-19T08:17:48;14.00;99.90
29765;DHT22;16667;-33.884;151.182;2022-08-19T08:20:19;13.90;99.90
29765;DHT22;16667;-33.884;151.182;2022-08-19T08:22:50;13.90;99.90
29765;DHT22;16667;-33.884;151.182;2022-08-19T08:25:49;13.90;99.90
29765;DHT22;16667;-33.884;151.182;2022-08-19T08:28:20;13.80;99.90
29765;DHT22;16667;-33.884;151.182;2022-08-19T08:30:51;13.80;99.90
29765;DHT22;16667;-33.884;151.182;2022-08-19T08:33:28;13.80;99.90
29765;DHT22;16667;-33.884;151.182;2022-08-19T08:35:59;13.70;99.90
29765;DHT22;16667;-33.884;151.182;2022-08-19T08:38:30;13.70;99.90
29765;DHT22;16667;-33.884;151.182;2022-08-19T08:41:09;13.70;99.90
29765;DHT22;16667;-33.884;151.182;2022-08-19T08:43:48;13.70;99.90
29765;DHT22;16667;-33.884;151.182;2022-08-19T08:46:25;13.60;99.90
29765;DHT22;16667;-33.884;151.182;2022-08-19T08:49:02;13.50;99.90
29765;DHT22;16667;-33.884;151.182;2022-08-19T08:51:39;13.50;99.90
29765;DHT22;16667;-33.884;151.182;2022-08-19T08:54:14;13.40;99.90
29765;DHT22;16667;-33.884;151.182;2022-08-19T08:56:48;13.40;99.90
29765;DHT22;16667;-33.884;151.182;2022-08-19T08:59:23;13.40;99.90
29765;DHT22;16667;-33.884;151.182;2022-08-19T09:01:57;13.40;99.90
29765;DHT22;16667;-33.884;151.182;2022-08-19T09:04:31;13.40;99.90
29765;DHT22;16667;-33.884;151.182;2022-08-19T09:07:12;13.40;99.90
29765;DHT22;16667;-33.884;151.182;2022-08-19T09:09:50;13.30;99.90
29765;DHT22;16667;-33.884;151.182;2022-08-19T09:12:25;13.30;99.90
29765;DHT22;16667;-33.884;151.182;2022-08-19T09:15:00;13.30;99.90
29765;DHT22;16667;-33.884;151.182;2022-08-19T09:17:35;13.30;99.90
29765;DHT22;16667;-33.884;151.182;2022-08-19T09:20:15;13.40;99.90
29765;DHT22;16667;-33.884;151.182;2022-08-19T09:22:48;13.30;99.90
29765;DHT22;16667;-33.884;151.182;2022-08-19T09:25:20;13.30;99.90
29765;DHT22;16667;-33.884;151.182;2022-08-19T09:27:52;13.20;99.90
29765;DHT22;16667;-33.884;151.182;2022-08-19T09:30:26;13.20;99.90
29765;DHT22;16667;-33.884;151.182;2022-08-19T09:32:56;13.10;99.90
29765;DHT22;16667;-33.884;151.182;2022-08-19T09:35:30;13.10;99.90
29765;DHT22;16667;-33.884;151.182;2022-08-19T09:38:01;13.10;99.90
29765;DHT22;16667;-33.884;151.182;2022-08-19T09:40:32;13.10;99.90
29765;DHT22;16667;-33.884;151.182;2022-08-19T09:43:03;13.00;99.90
29765;DHT22;16667;-33.884;151.182;2022-08-19T09:45:35;13.00;99.90
29765;DHT22;16667;-33.884;151.182;2022-08-19T09:48:06;13.00;99.90
29765;DHT22;16667;-33.884;151.182;2022-08-19T09:50:38;13.00;99.90
29765;DHT22;16667;-33.884;151.182;2022-08-19T09:53:09;13.00;99.90
29765;DHT22;16667;-33.884;151.182;2022-08-19T09:55:43;13.00;99.90
29765;DHT22;16667;-33.884;151.182;2022-08-19T09:58:14;13.00;99.90
29765;DHT22;16667;-33.884;151.182;2022-08-19T10:00:45;12.90;99.90
29765;DHT22;16667;-33.884;151.182;2022-08-19T10:03:16;12.90;99.90
29765;DHT22;16667;-33.884;151.182;2022-08-19T10:05:48;12.90;99.90
29765;DHT22;16667;-33.884;151.182;2022-08-19T10:08:22;12.90;99.90
29765;DHT22;16667;-33.884;151.182;2022-08-19T10:10:53;12.80;99.90
29765;DHT22;16667;-33.884;151.182;2022-08-19T10:13:27;12.80;99.90
29765;DHT22;16667;-33.884;151.182;2022-08-19T10:16:04;12.70;99.90
29765;DHT22;16667;-33.884;151.182;2022-08-19T10:18:36;12.70;99.90
29765;DHT22;16667;-33.884;151.182;2022-08-19T10:21:13;12.60;99.90
29765;DHT22;16667;-33.884;151.182;2022-08-19T10:23:46;12.60;99.90
29765;DHT22;16667;-33.884;151.182;2022-08-19T10:26:18;12.60;99.90
29765;DHT22;16667;-33.884;151.182;2022-08-19T10:28:50;12.60;99.90
29765;DHT22;16667;-33.884;151.182;2022-08-19T10:31:22;12.40;99.90
29765;DHT22;16667;-33.884;151.182;2022-08-19T10:33:53;12.40;99.90
29765;DHT22;16667;-33.884;151.182;2022-08-19T10:36:30;12.40;99.90
29765;DHT22;16667;-33.884;151.182;2022-08-19T10:39:06;12.40;99.90
29765;DHT22;16667;-33.884;151.182;2022-08-19T10:41:38;12.40;99.90
29765;DHT22;16667;-33.884;151.182;2022-08-19T10:44:12;12.30;99.90
29765;DHT22;16667;-33.884;151.182;2022-08-19T10:46:45;12.20;99.90
29765;DHT22;16667;-33.884;151.182;2022-08-19T10:49:17;12.20;99.90
29765;DHT22;16667;-33.884;151.182;2022-08-19T10:51:50;12.20;99.90
29765;DHT22;16667;-33.884;151.182;2022-08-19T10:54:36;12.20;99.90
29765;DHT22;16667;-33.884;151.182;2022-08-19T10:57:23;12.20;99.90
29765;DHT22;16667;-33.884;151.182;2022-08-19T10:59:57;12.10;99.90
29765;DHT22;16667;-33.884;151.182;2022-08-19T11:02:28;12.10;99.90
29765;DHT22;16667;-33.884;151.182;2022-08-19T11:05:00;12.00;99.90
29765;DHT22;16667;-33.884;151.182;2022-08-19T11:07:33;12.10;99.90
29765;DHT22;16667;-33.884;151.182;2022-08-19T11:10:04;12.10;99.90
29765;DHT22;16667;-33.884;151.182;2022-08-19T11:12:36;12.00;99.90
29765;DHT22;16667;-33.884;151.182;2022-08-19T11:15:08;12.00;99.90
29765;DHT22;16667;-33.884;151.182;2022-08-19T11:17:39;12.00;99.90
29765;DHT22;16667;-33.884;151.182;2022-08-19T11:20:12;12.00;99.90
29765;DHT22;16667;-33.884;151.182;2022-08-19T11:22:45;11.90;99.90
29765;DHT22;16667;-33.884;151.182;2022-08-19T11:25:16;11.90;99.90
29765;DHT22;16667;-33.884;151.182;2022-08-19T11:27:47;11.80;99.90
29765;DHT22;16667;-33.884;151.182;2022-08-19T11:30:19;11.80;99.90
29765;DHT22;16667;-33.884;151.182;2022-08-19T11:32:50;11.80;99.90
29765;DHT22;16667;-33.884;151.182;2022-08-19T11:35:25;11.80;99.90
29765;DHT22;16667;-33.884;151.182;2022-08-19T11:37:57;11.80;99.90
29765;DHT22;16667;-33.884;151.182;2022-08-19T11:40:29;11.70;99.90
29765;DHT22;16667;-33.884;151.182;2022-08-19T11:43:00;11.70;99.90
29765;DHT22;16667;-33.884;151.182;2022-08-19T11:45:31;11.70;99.90
29765;DHT22;16667;-33.884;151.182;2022-08-19T11:48:02;11.70;99.90
29765;DHT22;16667;-33.884;151.182;2022-08-19T11:50:33;11.70;99.90
29765;DHT22;16667;-33.884;151.182;2022-08-19T11:53:05;11.70;99.90
29765;DHT22;16667;-33.884;151.182;2022-08-19T11:55:38;11.70;99.90
29765;DHT22;16667;-33.884;151.182;2022-08-19T11:58:10;11.60;99.90
29765;DHT22;16667;-33.884;151.182;2022-08-19T12:00:41;11.60;99.90
29765;DHT22;16667;-33.884;151.182;2022-08-19T12:03:13;11.60;99.90
29765;DHT22;16667;-33.884;151.182;2022-08-19T12:05:44;11.60;99.90
29765;DHT22;16667;-33.884;151.182;2022-08-19T12:08:18;11.60;99.90
29765;DHT22;16667;-33.884;151.182;2022-08-19T12:10:50;11.50;99.90
29765;DHT22;16667;-33.884;151.182;2022-08-19T12:13:21;11.40;99.90
29765;DHT22;16667;-33.884;151.182;2022-08-19T12:15:51;11.40;99.90
29765;DHT22;16667;-33.884;151.182;2022-08-19T12:18:23;11.30;99.90
29765;DHT22;16667;-33.884;151.182;2022-08-19T12:20:55;11.20;99.90
29765;DHT22;16667;-33.884;151.182;2022-08-19T12:23:27;11.20;99.90
29765;DHT22;16667;-33.884;151.182;2022-08-19T12:25:58;11.20;99.90
29765;DHT22;16667;-33.884;151.182;2022-08-19T12:28:29;11.20;99.90
29765;DHT22;16667;-33.884;151.182;2022-08-19T12:31:00;11.10;99.90
29765;DHT22;16667;-33.884;151.182;2022-08-19T12:33:31;11.10;99.90
29765;DHT22;16667;-33.884;151.182;2022-08-19T12:36:03;11.00;99.90
29765;DHT22;16667;-33.884;151.182;2022-08-19T12:38:37;10.90;99.90
29765;DHT22;16667;-33.884;151.182;2022-08-19T12:41:09;10.90;99.90
29765;DHT22;16667;-33.884;151.182;2022-08-19T12:43:40;10.90;99.90
29765;DHT22;16667;-33.884;151.182;2022-08-19T12:46:11;10.90;99.90
29765;DHT22;16667;-33.884;151.182;2022-08-19T12:48:42;10.90;99.90
29765;DHT22;16667;-33.884;151.182;2022-08-19T12:51:15;10.90;99.90
29765;DHT22;16667;-33.884;151.182;2022-08-19T12:53:49;10.90;99.90
29765;DHT22;16667;-33.884;151.182;2022-08-19T12:56:19;10.90;99.90
29765;DHT22;16667;-33.884;151.182;2022-08-19T12:58:50;10.80;99.90
29765;DHT22;16667;-33.884;151.182;2022-08-19T13:01:21;10.80;99.90
29765;DHT22;16667;-33.884;151.182;2022-08-19T13:03:52;10.80;99.90
29765;DHT22;16667;-33.884;151.182;2022-08-19T13:06:23;10.80;99.90
29765;DHT22;16667;-33.884;151.182;2022-08-19T13:08:55;10.80;99.90
29765;DHT22;16667;-33.884;151.182;2022-08-19T13:11:26;10.80;99.90
29765;DHT22;16667;-33.884;151.182;2022-08-19T13:14:00;10.80;99.90
29765;DHT22;16667;-33.884;151.182;2022-08-19T13:16:31;10.80;99.90
29765;DHT22;16667;-33.884;151.182;2022-08-19T13:19:02;10.80;99.90
29765;DHT22;16667;-33.884;151.182;2022-08-19T13:21:35;10.80;99.90
29765;DHT22;16667;-33.884;151.182;2022-08-19T13:24:10;10.80;99.90
29765;DHT22;16667;-33.884;151.182;2022-08-19T13:26:42;10.80;99.90
29765;DHT22;16667;-33.884;151.182;2022-08-19T13:29:13;10.80;99.90
29765;DHT22;16667;-33.884;151.182;2022-08-19T13:32:00;10.80;99.90
29765;DHT22;16667;-33.884;151.182;2022-08-19T13:34:46;10.80;99.90
29765;DHT22;16667;-33.884;151.182;2022-08-19T13:37:17;10.80;99.90
29765;DHT22;16667;-33.884;151.182;2022-08-19T13:40:12;10.80;99.90
29765;DHT22;16667;-33.884;151.182;2022-08-19T13:42:46;10.80;99.90
29765;DHT22;16667;-33.884;151.182;2022-08-19T13:45:19;10.80;99.90
29765;DHT22;16667;-33.884;151.182;2022-08-19T13:47:52;10.80;99.90
29765;DHT22;16667;-33.884;151.182;2022-08-19T13:50:25;10.90;99.90
29765;DHT22;16667;-33.884;151.182;2022-08-19T13:52:57;10.90;99.90
29765;DHT22;16667;-33.884;151.182;2022-08-19T13:55:29;10.90;99.90
29765;DHT22;16667;-33.884;151.182;2022-08-19T13:58:01;10.90;99.90
29765;DHT22;16667;-33.884;151.182;2022-08-19T14:00:36;10.90;99.90
29765;DHT22;16667;-33.884;151.182;2022-08-19T14:03:08;10.90;99.90
29765;DHT22;16667;-33.884;151.182;2022-08-19T14:05:39;10.90;99.90
29765;DHT22;16667;-33.884;151.182;2022-08-19T14:08:10;10.90;99.90
29765;DHT22;16667;-33.884;151.182;2022-08-19T14:10:45;10.90;99.90
29765;DHT22;16667;-33.884;151.182;2022-08-19T14:13:19;10.80;99.90
29765;DHT22;16667;-33.884;151.182;2022-08-19T14:15:50;10.90;99.90
29765;DHT22;16667;-33.884;151.182;2022-08-19T14:18:21;10.80;99.90
29765;DHT22;16667;-33.884;151.182;2022-08-19T14:20:52;10.80;99.90
29765;DHT22;16667;-33.884;151.182;2022-08-19T14:23:24;10.80;99.90
29765;DHT22;16667;-33.884;151.182;2022-08-19T14:26:04;10.80;99.90
29765;DHT22;16667;-33.884;151.182;2022-08-19T14:28:35;10.90;99.90
29765;DHT22;16667;-33.884;151.182;2022-08-19T14:31:05;10.90;99.90
29765;DHT22;16667;-33.884;151.182;2022-08-19T14:33:36;11.00;99.90
29765;DHT22;16667;-33.884;151.182;2022-08-19T14:36:08;11.00;99.90
29765;DHT22;16667;-33.884;151.182;2022-08-19T14:38:38;11.00;99.90
29765;DHT22;16667;-33.884;151.182;2022-08-19T14:41:15;11.00;99.90
29765;DHT22;16667;-33.884;151.182;2022-08-19T14:43:48;10.90;99.90
29765;DHT22;16667;-33.884;151.182;2022-08-19T14:46:20;10.90;99.90
29765;DHT22;16667;-33.884;151.182;2022-08-19T14:48:51;10.80;99.90
29765;DHT22;16667;-33.884;151.182;2022-08-19T14:51:23;10.70;99.90
29765;DHT22;16667;-33.884;151.182;2022-08-19T14:53:54;10.60;99.90
29765;DHT22;16667;-33.884;151.182;2022-08-19T14:56:28;10.70;99.90
29765;DHT22;16667;-33.884;151.182;2022-08-19T14:58:59;10.70;99.90
29765;DHT22;16667;-33.884;151.182;2022-08-19T15:01:30;10.70;99.90
29765;DHT22;16667;-33.884;151.182;2022-08-19T15:04:01;10.60;99.90
29765;DHT22;16667;-33.884;151.182;2022-08-19T15:06:32;10.60;99.90
29765;DHT22;16667;-33.884;151.182;2022-08-19T15:09:04;10.60;99.90
29765;DHT22;16667;-33.884;151.182;2022-08-19T15:11:37;10.60;99.90
29765;DHT22;16667;-33.884;151.182;2022-08-19T15:14:07;10.60;99.90
29765;DHT22;16667;-33.884;151.182;2022-08-19T15:16:38;10.60;99.90
29765;DHT22;16667;-33.884;151.182;2022-08-19T15:19:09;10.50;99.90
29765;DHT22;16667;-33.884;151.182;2022-08-19T15:21:40;10.50;99.90